sensor_id;sensor_type;location;lat;lon;timestamp;pressure;altitude;pressure_sealevel;temperature;humidity
78800;BME280;68148;55.328;86.106;2023-03-30T00:00:49;99216.97;;;-3.31;81.32
78800;BME280;68148;55.328;86.106;2023-03-30T00:03:15;99206.56;;;-3.30;79.61
78800;BME280;68148;55.328;86.106;2023-03-30T00:05:42;99221.63;;;-3.36;79.50
78800;BME280;68148;55.328;86.106;2023-03-30T00:08:08;99232.03;;;-3.49;79.18
78800;BME280;68148;55.328;86.106;2023-03-30T00:10:33;99244.22;;;-3.51;79.13
78800;BME280;68148;55.328;86.106;2023-03-30T00:12:59;99240.03;;;-3.41;78.25
78800;BME280;68148;55.328;86.106;2023-03-30T00:15:26;99229.44;;;-3.49;78.40
78800;BME280;68148;55.328;86.106;2023-03-30T00:17:53;99232.06;;;-3.62;79.11
78800;BME280;68148;55.328;86.106;2023-03-30T00:20:19;99236.59;;;-3.65;79.48
78800;BME280;68148;55.328;86.106;2023-03-30T00:22:45;99237.63;;;-3.55;79.94
78800;BME280;68148;55.328;86.106;2023-03-30T00:25:14;99232.88;;;-3.61;79.56
78800;BME280;68148;55.328;86.106;2023-03-30T00:27:40;99243.00;;;-3.58;79.34
78800;BME280;68148;55.328;86.106;2023-03-30T00:30:10;99242.50;;;-3.63;78.64
78800;BME280;68148;55.328;86.106;2023-03-30T00:32:36;99242.22;;;-3.71;79.71
78800;BME280;68148;55.328;86.106;2023-03-30T00:35:03;99248.72;;;-3.79;79.48
78800;BME280;68148;55.328;86.106;2023-03-30T00:37:29;99245.81;;;-3.74;79.60
78800;BME280;68148;55.328;86.106;2023-03-30T00:39:55;99244.72;;;-3.83;79.12
78800;BME280;68148;55.328;86.106;2023-03-30T00:42:21;99242.34;;;-3.86;78.72
78800;BME280;68148;55.328;86.106;2023-03-30T00:45:17;99247.56;;;-3.74;79.09
78800;BME280;68148;55.328;86.106;2023-03-30T00:48:00;99241.53;;;-3.99;79.00
78800;BME280;68148;55.328;86.106;2023-03-30T00:50:34;99237.31;;;-4.00;79.91
78800;BME280;68148;55.328;86.106;2023-03-30T00:53:10;99248.47;;;-4.12;78.83
78800;BME280;68148;55.328;86.106;2023-03-30T00:55:39;99232.09;;;-4.24;79.48
78800;BME280;68148;55.328;86.106;2023-03-30T00:58:06;99227.69;;;-4.35;79.85
78800;BME280;68148;55.328;86.106;2023-03-30T01:00:33;99219.75;;;-4.32;80.73
78800;BME280;68148;55.328;86.106;2023-03-30T01:03:02;99231.72;;;-4.31;79.67
78800;BME280;68148;55.328;86.106;2023-03-30T01:05:30;99233.78;;;-4.23;79.70
78800;BME280;68148;55.328;86.106;2023-03-30T01:07:57;99247.28;;;-4.32;80.05
78800;BME280;68148;55.328;86.106;2023-03-30T01:10:23;99225.81;;;-4.33;80.23
78800;BME280;68148;55.328;86.106;2023-03-30T01:12:49;99243.47;;;-4.39;80.73
78800;BME280;68148;55.328;86.106;2023-03-30T01:15:16;99235.72;;;-4.39;81.17
78800;BME280;68148;55.328;86.106;2023-03-30T01:18:05;99238.09;;;-4.36;81.35
78800;BME280;68148;55.328;86.106;2023-03-30T01:21:05;99243.03;;;-4.46;82.40
78800;BME280;68148;55.328;86.106;2023-03-30T01:26:36;99230.69;;;-4.41;80.36
78800;BME280;68148;55.328;86.106;2023-03-30T01:43:19;99264.75;;;-4.50;79.56
78800;BME280;68148;55.328;86.106;2023-03-30T01:45:58;99273.63;;;-4.54;80.23
78800;BME280;68148;55.328;86.106;2023-03-30T01:48:42;99283.63;;;-4.62;79.95
78800;BME280;68148;55.328;86.106;2023-03-30T01:51:22;99310.09;;;-4.60;78.60
78800;BME280;68148;55.328;86.106;2023-03-30T01:53:56;99310.19;;;-4.74;77.13
78800;BME280;68148;55.328;86.106;2023-03-30T01:56:34;99302.22;;;-4.71;78.08
78800;BME280;68148;55.328;86.106;2023-03-30T01:59:30;99305.31;;;-4.79;78.76
78800;BME280;68148;55.328;86.106;2023-03-30T02:02:00;99290.81;;;-4.67;78.02
78800;BME280;68148;55.328;86.106;2023-03-30T02:04:32;99298.44;;;-4.79;79.05
78800;BME280;68148;55.328;86.106;2023-03-30T02:07:05;99332.06;;;-4.82;78.37
78800;BME280;68148;55.328;86.106;2023-03-30T02:09:36;99343.00;;;-4.78;77.58
78800;BME280;68148;55.328;86.106;2023-03-30T02:12:06;99337.25;;;-4.69;77.18
78800;BME280;68148;55.328;86.106;2023-03-30T02:14:35;99327.94;;;-4.84;77.52
78800;BME280;68148;55.328;86.106;2023-03-30T02:17:07;99341.94;;;-4.88;77.65
78800;BME280;68148;55.328;86.106;2023-03-30T02:19:35;99337.97;;;-5.07;78.27
78800;BME280;68148;55.328;86.106;2023-03-30T02:22:01;99336.91;;;-5.17;79.29
78800;BME280;68148;55.328;86.106;2023-03-30T02:24:30;99339.19;;;-5.12;79.14
78800;BME280;68148;55.328;86.106;2023-03-30T02:26:58;99340.06;;;-4.99;77.98
78800;BME280;68148;55.328;86.106;2023-03-30T02:29:24;99334.31;;;-4.90;77.57
78800;BME280;68148;55.328;86.106;2023-03-30T02:31:54;99368.66;;;-5.04;76.33
78800;BME280;68148;55.328;86.106;2023-03-30T02:38:01;99364.97;;;-4.99;76.88
78800;BME280;68148;55.328;86.106;2023-03-30T02:44:00;99361.09;;;-4.92;76.42
78800;BME280;68148;55.328;86.106;2023-03-30T02:52:52;99394.19;;;-4.73;75.57
78800;BME280;68148;55.328;86.106;2023-03-30T02:55:35;99402.03;;;-4.75;75.41
78800;BME280;68148;55.328;86.106;2023-03-30T03:00:53;99401.56;;;-4.82;76.05
78800;BME280;68148;55.328;86.106;2023-03-30T03:03:25;99397.47;;;-4.71;74.40
78800;BME280;68148;55.328;86.106;2023-03-30T03:05:53;99424.09;;;-4.85;72.57
78800;BME280;68148;55.328;86.106;2023-03-30T03:08:22;99400.81;;;-4.96;71.99
78800;BME280;68148;55.328;86.106;2023-03-30T03:10:50;99414.84;;;-4.88;72.20
78800;BME280;68148;55.328;86.106;2023-03-30T03:13:16;99437.50;;;-4.80;71.64
78800;BME280;68148;55.328;86.106;2023-03-30T03:15:43;99443.75;;;-4.84;72.17
78800;BME280;68148;55.328;86.106;2023-03-30T03:18:09;99421.38;;;-4.96;71.84
78800;BME280;68148;55.328;86.106;2023-03-30T03:20:35;99425.91;;;-5.00;71.72
78800;BME280;68148;55.328;86.106;2023-03-30T03:23:01;99427.72;;;-5.02;72.71
78800;BME280;68148;55.328;86.106;2023-03-30T03:25:27;99421.69;;;-5.15;73.57
78800;BME280;68148;55.328;86.106;2023-03-30T03:27:56;99414.22;;;-5.06;73.47
78800;BME280;68148;55.328;86.106;2023-03-30T03:30:22;99452.56;;;-5.01;73.65
78800;BME280;68148;55.328;86.106;2023-03-30T03:32:49;99461.66;;;-5.24;72.88
78800;BME280;68148;55.328;86.106;2023-03-30T03:35:15;99488.47;;;-5.28;73.07
78800;BME280;68148;55.328;86.106;2023-03-30T03:37:41;99478.94;;;-5.26;74.34
78800;BME280;68148;55.328;86.106;2023-03-30T03:40:08;99456.63;;;-5.25;74.02
78800;BME280;68148;55.328;86.106;2023-03-30T03:42:34;99461.59;;;-5.22;73.08
78800;BME280;68148;55.328;86.106;2023-03-30T03:45:00;99460.66;;;-5.21;74.51
78800;BME280;68148;55.328;86.106;2023-03-30T03:47:25;99461.47;;;-5.07;74.88
78800;BME280;68148;55.328;86.106;2023-03-30T03:49:54;99475.91;;;-5.33;74.76
78800;BME280;68148;55.328;86.106;2023-03-30T03:52:20;99480.56;;;-5.11;74.80
78800;BME280;68148;55.328;86.106;2023-03-30T03:54:46;99457.69;;;-5.01;75.00
78800;BME280;68148;55.328;86.106;2023-03-30T03:57:11;99470.63;;;-5.03;74.74
78800;BME280;68148;55.328;86.106;2023-03-30T03:59:38;99454.84;;;-4.69;72.01
78800;BME280;68148;55.328;86.106;2023-03-30T04:02:03;99474.81;;;-4.73;71.87
78800;BME280;68148;55.328;86.106;2023-03-30T04:04:29;99490.13;;;-4.57;71.49
78800;BME280;68148;55.328;86.106;2023-03-30T04:06:56;99494.13;;;-4.39;71.76
78800;BME280;68148;55.328;86.106;2023-03-30T04:09:22;99505.66;;;-4.05;69.10
78800;BME280;68148;55.328;86.106;2023-03-30T04:11:48;99495.38;;;-3.92;68.79
78800;BME280;68148;55.328;86.106;2023-03-30T04:14:14;99497.19;;;-3.54;66.95
78800;BME280;68148;55.328;86.106;2023-03-30T04:16:40;99500.88;;;-3.20;66.05
78800;BME280;68148;55.328;86.106;2023-03-30T04:19:05;99495.25;;;-2.88;66.01
78800;BME280;68148;55.328;86.106;2023-03-30T04:21:31;99512.94;;;-2.58;63.82
78800;BME280;68148;55.328;86.106;2023-03-30T04:23:57;99497.94;;;-2.90;60.17
78800;BME280;68148;55.328;86.106;2023-03-30T04:26:22;99512.06;;;-2.83;60.91
78800;BME280;68148;55.328;86.106;2023-03-30T04:28:48;99546.09;;;-3.02;58.59
78800;BME280;68148;55.328;86.106;2023-03-30T04:31:14;99509.84;;;-3.13;58.49
78800;BME280;68148;55.328;86.106;2023-03-30T04:33:40;99505.25;;;-2.84;57.28
78800;BME280;68148;55.328;86.106;2023-03-30T04:36:06;99545.88;;;-3.11;57.18
78800;BME280;68148;55.328;86.106;2023-03-30T04:38:32;99532.16;;;-2.99;57.56
78800;BME280;68148;55.328;86.106;2023-03-30T04:40:59;99523.16;;;-2.93;56.67
78800;BME280;68148;55.328;86.106;2023-03-30T04:43:25;99550.41;;;-3.02;56.28
78800;BME280;68148;55.328;86.106;2023-03-30T04:45:52;99527.41;;;-3.43;56.49
78800;BME280;68148;55.328;86.106;2023-03-30T04:48:20;99527.38;;;-3.69;56.75
78800;BME280;68148;55.328;86.106;2023-03-30T04:50:47;99537.31;;;-3.50;57.09
78800;BME280;68148;55.328;86.106;2023-03-30T04:53:13;99546.81;;;-3.38;56.62
78800;BME280;68148;55.328;86.106;2023-03-30T04:55:40;99528.03;;;-3.40;56.86
78800;BME280;68148;55.328;86.106;2023-03-30T04:58:10;99561.25;;;-3.48;55.92
78800;BME280;68148;55.328;86.106;2023-03-30T05:00:36;99562.28;;;-3.63;56.15
78800;BME280;68148;55.328;86.106;2023-03-30T05:03:04;99547.44;;;-3.60;55.80
78800;BME280;68148;55.328;86.106;2023-03-30T05:05:30;99546.28;;;-3.30;55.53
78800;BME280;68148;55.328;86.106;2023-03-30T05:08:04;99531.41;;;-3.65;55.80
78800;BME280;68148;55.328;86.106;2023-03-30T05:10:30;99558.25;;;-3.67;56.07
78800;BME280;68148;55.328;86.106;2023-03-30T05:12:55;99583.63;;;-3.48;54.91
78800;BME280;68148;55.328;86.106;2023-03-30T05:15:24;99568.47;;;-3.40;55.03
78800;BME280;68148;55.328;86.106;2023-03-30T05:17:50;99573.66;;;-3.15;54.45
78800;BME280;68148;55.328;86.106;2023-03-30T05:20:16;99575.09;;;-3.23;55.32
78800;BME280;68148;55.328;86.106;2023-03-30T05:22:42;99593.84;;;-3.47;54.92
78800;BME280;68148;55.328;86.106;2023-03-30T05:25:08;99597.81;;;-3.29;54.54
78800;BME280;68148;55.328;86.106;2023-03-30T05:27:35;99569.19;;;-3.51;55.36
78800;BME280;68148;55.328;86.106;2023-03-30T05:30:00;99573.97;;;-3.19;54.38
78800;BME280;68148;55.328;86.106;2023-03-30T05:32:26;99608.16;;;-3.03;53.92
78800;BME280;68148;55.328;86.106;2023-03-30T05:34:52;99566.09;;;-3.05;52.98
78800;BME280;68148;55.328;86.106;2023-03-30T05:37:18;99613.19;;;-2.89;52.44
78800;BME280;68148;55.328;86.106;2023-03-30T05:39:44;99585.53;;;-2.99;52.00
78800;BME280;68148;55.328;86.106;2023-03-30T05:42:10;99598.22;;;-2.84;52.33
78800;BME280;68148;55.328;86.106;2023-03-30T05:44:36;99601.59;;;-2.58;52.01
78800;BME280;68148;55.328;86.106;2023-03-30T05:47:02;99631.09;;;-2.36;50.96
78800;BME280;68148;55.328;86.106;2023-03-30T05:49:28;99620.22;;;-2.53;50.66
78800;BME280;68148;55.328;86.106;2023-03-30T05:51:53;99623.84;;;-2.81;50.91
78800;BME280;68148;55.328;86.106;2023-03-30T05:54:19;99635.09;;;-2.69;50.92
78800;BME280;68148;55.328;86.106;2023-03-30T05:56:45;99622.16;;;-2.43;50.91
78800;BME280;68148;55.328;86.106;2023-03-30T05:59:10;99650.34;;;-2.53;50.24
78800;BME280;68148;55.328;86.106;2023-03-30T06:01:36;99647.38;;;-2.47;49.84
78800;BME280;68148;55.328;86.106;2023-03-30T06:04:02;99646.88;;;-2.15;49.34
78800;BME280;68148;55.328;86.106;2023-03-30T06:06:28;99657.00;;;-2.12;48.69
78800;BME280;68148;55.328;86.106;2023-03-30T06:08:58;99649.00;;;-1.72;48.79
78800;BME280;68148;55.328;86.106;2023-03-30T06:11:24;99671.41;;;-2.21;48.24
78800;BME280;68148;55.328;86.106;2023-03-30T06:13:49;99662.63;;;-2.18;48.71
78800;BME280;68148;55.328;86.106;2023-03-30T06:16:15;99660.78;;;-2.29;49.50
78800;BME280;68148;55.328;86.106;2023-03-30T06:18:41;99673.06;;;-2.33;48.96
78800;BME280;68148;55.328;86.106;2023-03-30T06:21:07;99679.03;;;-2.19;48.55
78800;BME280;68148;55.328;86.106;2023-03-30T06:23:34;99687.88;;;-1.98;48.19
78800;BME280;68148;55.328;86.106;2023-03-30T06:25:59;99695.00;;;-2.25;48.71
78800;BME280;68148;55.328;86.106;2023-03-30T06:28:25;99710.56;;;-2.14;47.40
78800;BME280;68148;55.328;86.106;2023-03-30T06:30:52;99740.19;;;-2.44;47.95
78800;BME280;68148;55.328;86.106;2023-03-30T06:33:18;99693.41;;;-2.15;47.70
78800;BME280;68148;55.328;86.106;2023-03-30T06:35:49;99697.31;;;-1.97;47.07
78800;BME280;68148;55.328;86.106;2023-03-30T06:38:16;99716.81;;;-1.80;45.71
78800;BME280;68148;55.328;86.106;2023-03-30T06:40:42;99709.56;;;-2.24;45.86
78800;BME280;68148;55.328;86.106;2023-03-30T06:43:17;99683.22;;;-2.42;46.78
78800;BME280;68148;55.328;86.106;2023-03-30T06:45:51;99699.75;;;-2.32;47.05
78800;BME280;68148;55.328;86.106;2023-03-30T06:48:18;99727.00;;;-2.03;46.20
78800;BME280;68148;55.328;86.106;2023-03-30T06:50:46;99708.16;;;-1.92;46.60
78800;BME280;68148;55.328;86.106;2023-03-30T06:53:12;99724.13;;;-2.11;45.39
78800;BME280;68148;55.328;86.106;2023-03-30T06:55:38;99721.03;;;-2.41;46.03
78800;BME280;68148;55.328;86.106;2023-03-30T06:58:04;99733.84;;;-2.14;46.58
78800;BME280;68148;55.328;86.106;2023-03-30T07:00:30;99722.69;;;-2.28;46.31
78800;BME280;68148;55.328;86.106;2023-03-30T07:02:56;99716.06;;;-2.32;45.69
78800;BME280;68148;55.328;86.106;2023-03-30T07:05:22;99721.00;;;-2.03;45.75
78800;BME280;68148;55.328;86.106;2023-03-30T07:07:48;99728.25;;;-1.71;44.83
78800;BME280;68148;55.328;86.106;2023-03-30T07:10:13;99737.34;;;-2.03;44.79
78800;BME280;68148;55.328;86.106;2023-03-30T07:12:39;99739.34;;;-2.32;43.90
78800;BME280;68148;55.328;86.106;2023-03-30T07:15:05;99744.81;;;-2.36;44.59
78800;BME280;68148;55.328;86.106;2023-03-30T07:17:33;99755.69;;;-2.18;44.74
78800;BME280;68148;55.328;86.106;2023-03-30T07:19:59;99735.50;;;-2.13;44.63
78800;BME280;68148;55.328;86.106;2023-03-30T07:22:25;99767.75;;;-2.44;44.55
78800;BME280;68148;55.328;86.106;2023-03-30T07:24:51;99759.09;;;-2.31;43.39
78800;BME280;68148;55.328;86.106;2023-03-30T07:27:16;99767.75;;;-2.44;44.39
78800;BME280;68148;55.328;86.106;2023-03-30T07:29:42;99758.47;;;-2.21;45.12
78800;BME280;68148;55.328;86.106;2023-03-30T07:32:08;99773.78;;;-2.18;44.14
78800;BME280;68148;55.328;86.106;2023-03-30T07:34:34;99770.34;;;-2.32;45.31
78800;BME280;68148;55.328;86.106;2023-03-30T07:37:00;99776.38;;;-2.18;45.53
78800;BME280;68148;55.328;86.106;2023-03-30T07:39:27;99798.69;;;-2.05;44.17
78800;BME280;68148;55.328;86.106;2023-03-30T07:41:52;99784.31;;;-2.09;44.29
78800;BME280;68148;55.328;86.106;2023-03-30T07:44:20;99796.72;;;-2.01;44.17
78800;BME280;68148;55.328;86.106;2023-03-30T07:46:45;99810.06;;;-2.07;44.66
78800;BME280;68148;55.328;86.106;2023-03-30T07:49:11;99808.91;;;-1.78;43.49
78800;BME280;68148;55.328;86.106;2023-03-30T07:51:37;99817.34;;;-1.63;43.78
78800;BME280;68148;55.328;86.106;2023-03-30T07:54:03;99817.34;;;-1.63;43.46
78800;BME280;68148;55.328;86.106;2023-03-30T07:56:29;99826.88;;;-1.63;43.01
78800;BME280;68148;55.328;86.106;2023-03-30T07:58:55;99846.69;;;-1.75;43.38
78800;BME280;68148;55.328;86.106;2023-03-30T08:01:21;99845.63;;;-1.85;42.80
78800;BME280;68148;55.328;86.106;2023-03-30T08:03:47;99837.84;;;-1.72;42.84
78800;BME280;68148;55.328;86.106;2023-03-30T08:06:13;99835.63;;;-1.40;43.74
78800;BME280;68148;55.328;86.106;2023-03-30T08:08:39;99844.53;;;-1.32;41.60
78800;BME280;68148;55.328;86.106;2023-03-30T08:11:06;99870.81;;;-1.38;42.13
78800;BME280;68148;55.328;86.106;2023-03-30T08:13:32;99862.94;;;-1.23;41.68
78800;BME280;68148;55.328;86.106;2023-03-30T08:15:58;99876.38;;;-0.94;40.58
78800;BME280;68148;55.328;86.106;2023-03-30T08:18:25;99879.09;;;-1.20;40.71
78800;BME280;68148;55.328;86.106;2023-03-30T08:20:52;99874.44;;;-1.28;39.66
78800;BME280;68148;55.328;86.106;2023-03-30T08:23:19;99878.41;;;-1.60;40.25
78800;BME280;68148;55.328;86.106;2023-03-30T08:25:45;99868.47;;;-1.54;40.52
78800;BME280;68148;55.328;86.106;2023-03-30T08:28:11;99881.47;;;-1.30;40.26
78800;BME280;68148;55.328;86.106;2023-03-30T08:30:38;99870.50;;;-1.33;40.97
78800;BME280;68148;55.328;86.106;2023-03-30T08:33:04;99910.44;;;-1.24;40.14
78800;BME280;68148;55.328;86.106;2023-03-30T08:35:30;99895.56;;;-1.46;41.02
78800;BME280;68148;55.328;86.106;2023-03-30T08:37:55;99900.56;;;-1.56;39.68
78800;BME280;68148;55.328;86.106;2023-03-30T08:40:21;99909.75;;;-1.39;39.05
78800;BME280;68148;55.328;86.106;2023-03-30T08:45:23;99926.63;;;-1.46;38.04
78800;BME280;68148;55.328;86.106;2023-03-30T08:47:51;99923.31;;;-1.36;37.68
78800;BME280;68148;55.328;86.106;2023-03-30T08:52:51;99897.00;;;-1.30;38.97
78800;BME280;68148;55.328;86.106;2023-03-30T08:55:37;99909.66;;;-1.38;39.13
78800;BME280;68148;55.328;86.106;2023-03-30T08:58:25;99923.19;;;-1.21;38.31
78800;BME280;68148;55.328;86.106;2023-03-30T09:04:28;99944.81;;;-1.10;37.68
78800;BME280;68148;55.328;86.106;2023-03-30T09:06:54;99953.66;;;-1.38;36.78
78800;BME280;68148;55.328;86.106;2023-03-30T09:09:24;99970.13;;;-1.52;34.88
78800;BME280;68148;55.328;86.106;2023-03-30T09:11:56;99961.41;;;-1.38;35.75
78800;BME280;68148;55.328;86.106;2023-03-30T09:14:38;99966.50;;;-1.36;36.55
78800;BME280;68148;55.328;86.106;2023-03-30T09:17:22;99956.25;;;-1.38;36.10
78800;BME280;68148;55.328;86.106;2023-03-30T09:20:04;99957.06;;;-1.24;36.13
78800;BME280;68148;55.328;86.106;2023-03-30T09:22:37;99975.28;;;-1.39;37.35
78800;BME280;68148;55.328;86.106;2023-03-30T09:28:11;99959.88;;;-1.28;36.37
78800;BME280;68148;55.328;86.106;2023-03-30T09:30:45;99981.00;;;-1.34;36.97
78800;BME280;68148;55.328;86.106;2023-03-30T09:36:13;100003.25;;;-1.31;35.88
78800;BME280;68148;55.328;86.106;2023-03-30T09:38:39;100023.22;;;-1.46;35.65
78800;BME280;68148;55.328;86.106;2023-03-30T09:43:41;100004.91;;;-1.56;36.57
78800;BME280;68148;55.328;86.106;2023-03-30T09:46:08;99993.91;;;-1.59;36.05
78800;BME280;68148;55.328;86.106;2023-03-30T09:48:43;100021.03;;;-1.65;36.70
78800;BME280;68148;55.328;86.106;2023-03-30T09:51:25;100003.25;;;-1.69;37.15
78800;BME280;68148;55.328;86.106;2023-03-30T09:54:02;100009.69;;;-1.37;37.21
78800;BME280;68148;55.328;86.106;2023-03-30T09:56:40;100024.38;;;-1.37;36.12
78800;BME280;68148;55.328;86.106;2023-03-30T09:59:30;100022.94;;;-1.54;36.53
78800;BME280;68148;55.328;86.106;2023-03-30T10:02:16;100030.78;;;-1.56;36.64
78800;BME280;68148;55.328;86.106;2023-03-30T10:05:01;100038.97;;;-1.49;35.99
78800;BME280;68148;55.328;86.106;2023-03-30T10:07:32;100024.06;;;-1.58;35.60
78800;BME280;68148;55.328;86.106;2023-03-30T10:10:01;100045.56;;;-1.70;36.04
78800;BME280;68148;55.328;86.106;2023-03-30T10:12:28;100039.69;;;-1.47;36.84
78800;BME280;68148;55.328;86.106;2023-03-30T10:14:56;100050.69;;;-1.31;36.59
78800;BME280;68148;55.328;86.106;2023-03-30T10:17:27;100060.81;;;-1.53;34.20
78800;BME280;68148;55.328;86.106;2023-03-30T10:20:22;100060.59;;;-1.50;36.33
78800;BME280;68148;55.328;86.106;2023-03-30T10:22:52;100077.06;;;-1.51;34.92
78800;BME280;68148;55.328;86.106;2023-03-30T10:25:25;100087.72;;;-1.56;34.71
78800;BME280;68148;55.328;86.106;2023-03-30T10:27:55;100088.09;;;-1.74;35.14
78800;BME280;68148;55.328;86.106;2023-03-30T10:30:23;100086.16;;;-1.71;35.02
78800;BME280;68148;55.328;86.106;2023-03-30T10:32:51;100100.09;;;-1.73;35.31
78800;BME280;68148;55.328;86.106;2023-03-30T10:35:20;100085.44;;;-1.60;35.83
78800;BME280;68148;55.328;86.106;2023-03-30T10:37:49;100103.31;;;-1.70;35.11
78800;BME280;68148;55.328;86.106;2023-03-30T10:40:18;100122.66;;;-1.75;35.16
78800;BME280;68148;55.328;86.106;2023-03-30T10:42:45;100117.38;;;-1.74;34.21
78800;BME280;68148;55.328;86.106;2023-03-30T10:45:17;100120.84;;;-1.88;35.03
78800;BME280;68148;55.328;86.106;2023-03-30T10:58:46;100140.72;;;-1.88;35.04
78800;BME280;68148;55.328;86.106;2023-03-30T11:04:45;100156.50;;;-1.93;33.82
78800;BME280;68148;55.328;86.106;2023-03-30T11:07:34;100154.84;;;-1.94;34.19
78800;BME280;68148;55.328;86.106;2023-03-30T11:10:25;100156.50;;;-1.93;34.88
78800;BME280;68148;55.328;86.106;2023-03-30T11:13:05;100156.25;;;-1.88;32.78
78800;BME280;68148;55.328;86.106;2023-03-30T11:15:52;100157.28;;;-2.05;32.86
78800;BME280;68148;55.328;86.106;2023-03-30T11:18:29;100167.63;;;-2.05;33.56
78800;BME280;68148;55.328;86.106;2023-03-30T11:21:19;100183.63;;;-2.13;32.88
78800;BME280;68148;55.328;86.106;2023-03-30T11:23:55;100188.88;;;-2.14;33.12
78800;BME280;68148;55.328;86.106;2023-03-30T11:26:38;100197.47;;;-2.28;33.55
78800;BME280;68148;55.328;86.106;2023-03-30T11:31:44;100191.94;;;-2.50;34.74
78800;BME280;68148;55.328;86.106;2023-03-30T11:34:28;100206.25;;;-2.59;34.50
78800;BME280;68148;55.328;86.106;2023-03-30T11:39:53;100215.06;;;-2.78;35.46
78800;BME280;68148;55.328;86.106;2023-03-30T11:42:27;100227.72;;;-2.73;36.08
78800;BME280;68148;55.328;86.106;2023-03-30T11:44:54;100232.69;;;-2.70;35.83
78800;BME280;68148;55.328;86.106;2023-03-30T11:47:51;100235.16;;;-2.83;35.70
78800;BME280;68148;55.328;86.106;2023-03-30T12:03:56;100261.91;;;-2.84;36.53
78800;BME280;68148;55.328;86.106;2023-03-30T12:06:33;100268.00;;;-2.85;36.05
78800;BME280;68148;55.328;86.106;2023-03-30T12:09:23;100281.13;;;-2.73;36.07
78800;BME280;68148;55.328;86.106;2023-03-30T12:14:39;100279.00;;;-2.67;36.29
78800;BME280;68148;55.328;86.106;2023-03-30T12:22:48;100304.56;;;-2.77;36.30
78800;BME280;68148;55.328;86.106;2023-03-30T12:28:10;100309.31;;;-2.85;37.02
78800;BME280;68148;55.328;86.106;2023-03-30T12:30:54;100309.94;;;-2.65;37.36
78800;BME280;68148;55.328;86.106;2023-03-30T12:34:04;100318.53;;;-2.65;36.38
78800;BME280;68148;55.328;86.106;2023-03-30T12:36:39;100322.00;;;-2.66;36.78
78800;BME280;68148;55.328;86.106;2023-03-30T12:42:04;100341.84;;;-3.12;37.05
78800;BME280;68148;55.328;86.106;2023-03-30T12:45:02;100343.50;;;-3.27;37.90
78800;BME280;68148;55.328;86.106;2023-03-30T12:55:45;100368.78;;;-3.65;39.45
78800;BME280;68148;55.328;86.106;2023-03-30T13:03:49;100388.28;;;-3.77;39.13
78800;BME280;68148;55.328;86.106;2023-03-30T13:06:38;100400.19;;;-3.74;39.95
78800;BME280;68148;55.328;86.106;2023-03-30T13:14:15;100410.44;;;-3.40;39.77
78800;BME280;68148;55.328;86.106;2023-03-30T13:19:41;100435.94;;;-3.34;40.50
78800;BME280;68148;55.328;86.106;2023-03-30T13:29:40;100459.19;;;-3.51;42.42
78800;BME280;68148;55.328;86.106;2023-03-30T13:37:30;100479.53;;;-3.62;43.90
78800;BME280;68148;55.328;86.106;2023-03-30T13:51:03;100506.06;;;-3.60;44.68
78800;BME280;68148;55.328;86.106;2023-03-30T13:53:38;100500.91;;;-3.78;44.34
78800;BME280;68148;55.328;86.106;2023-03-30T13:56:08;100503.03;;;-3.86;45.32
78800;BME280;68148;55.328;86.106;2023-03-30T13:58:36;100513.44;;;-3.87;45.53
78800;BME280;68148;55.328;86.106;2023-03-30T14:01:09;100544.75;;;-3.78;44.97
78800;BME280;68148;55.328;86.106;2023-03-30T14:07:25;100527.47;;;-3.93;45.91
78800;BME280;68148;55.328;86.106;2023-03-30T14:10:17;100533.47;;;-3.92;45.83
78800;BME280;68148;55.328;86.106;2023-03-30T14:12:55;100529.25;;;-4.12;46.79
78800;BME280;68148;55.328;86.106;2023-03-30T14:15:35;100539.53;;;-4.11;47.83
78800;BME280;68148;55.328;86.106;2023-03-30T14:18:27;100563.06;;;-4.18;47.57
78800;BME280;68148;55.328;86.106;2023-03-30T14:21:05;100547.34;;;-4.31;47.83
78800;BME280;68148;55.328;86.106;2023-03-30T14:24:18;100553.72;;;-4.02;47.29
78800;BME280;68148;55.328;86.106;2023-03-30T14:27:14;100582.41;;;-4.10;47.46
78800;BME280;68148;55.328;86.106;2023-03-30T14:29:47;100587.53;;;-3.91;47.53
78800;BME280;68148;55.328;86.106;2023-03-30T14:32:16;100582.03;;;-4.19;48.42
78800;BME280;68148;55.328;86.106;2023-03-30T14:35:15;100588.72;;;-4.34;49.04
78800;BME280;68148;55.328;86.106;2023-03-30T14:37:41;100599.16;;;-4.37;49.25
78800;BME280;68148;55.328;86.106;2023-03-30T14:40:13;100591.28;;;-4.34;48.67
78800;BME280;68148;55.328;86.106;2023-03-30T14:42:41;100598.31;;;-4.38;48.57
78800;BME280;68148;55.328;86.106;2023-03-30T14:45:08;100601.38;;;-4.11;47.33
78800;BME280;68148;55.328;86.106;2023-03-30T14:47:59;100610.56;;;-4.43;48.39
78800;BME280;68148;55.328;86.106;2023-03-30T14:50:32;100624.38;;;-4.44;48.73
78800;BME280;68148;55.328;86.106;2023-03-30T14:53:19;100624.78;;;-4.53;48.93
78800;BME280;68148;55.328;86.106;2023-03-30T14:55:50;100624.16;;;-4.58;49.37
78800;BME280;68148;55.328;86.106;2023-03-30T15:01:41;100633.56;;;-4.57;49.44
78800;BME280;68148;55.328;86.106;2023-03-30T15:04:42;100638.19;;;-4.65;49.69
78800;BME280;68148;55.328;86.106;2023-03-30T15:07:36;100626.47;;;-4.91;50.44
78800;BME280;68148;55.328;86.106;2023-03-30T15:10:02;100632.75;;;-4.78;49.71
78800;BME280;68148;55.328;86.106;2023-03-30T15:12:37;100652.13;;;-4.69;49.50
78800;BME280;68148;55.328;86.106;2023-03-30T15:15:06;100657.66;;;-4.79;50.17
78800;BME280;68148;55.328;86.106;2023-03-30T15:17:34;100661.97;;;-4.79;50.08
78800;BME280;68148;55.328;86.106;2023-03-30T15:20:02;100660.69;;;-4.89;50.42
78800;BME280;68148;55.328;86.106;2023-03-30T15:22:35;100667.66;;;-4.91;50.13
78800;BME280;68148;55.328;86.106;2023-03-30T15:25:22;100668.72;;;-4.97;50.48
78800;BME280;68148;55.328;86.106;2023-03-30T15:28:14;100672.22;;;-4.98;50.87
78800;BME280;68148;55.328;86.106;2023-03-30T15:30:44;100674.25;;;-5.06;50.70
78800;BME280;68148;55.328;86.106;2023-03-30T15:33:35;100685.38;;;-5.06;50.76
78800;BME280;68148;55.328;86.106;2023-03-30T15:36:13;100684.03;;;-5.14;51.16
78800;BME280;68148;55.328;86.106;2023-03-30T15:38:52;100697.38;;;-5.05;50.51